sensor_id;sensor_type;location;lat;lon;timestamp;P1;durP1;ratioP1;P2;durP2;ratioP2
15240;SDS011;7723;52.170;9.978;2022-10-13T00:02:00;10.82;;;4.72;;
15240;SDS011;7723;52.170;9.978;2022-10-13T00:04:27;9.15;;;4.40;;
15240;SDS011;7723;52.170;9.978;2022-10-13T00:06:56;9.45;;;5.15;;
15240;SDS011;7723;52.170;9.978;2022-10-13T00:09:23;12.75;;;6.05;;
15240;SDS011;7723;52.170;9.978;2022-10-13T00:11:50;9.82;;;5.68;;
15240;SDS011;7723;52.170;9.978;2022-10-13T00:14:17;9.05;;;5.82;;
15240;SDS011;7723;52.170;9.978;2022-10-13T00:16:44;13.07;;;5.47;;
15240;SDS011;7723;52.170;9.978;2022-10-13T00:19:11;11.52;;;6.10;;
15240;SDS011;7723;52.170;9.978;2022-10-13T00:21:39;9.55;;;5.22;;
15240;SDS011;7723;52.170;9.978;2022-10-13T00:24:09;14.30;;;6.28;;
15240;SDS011;7723;52.170;9.978;2022-10-13T00:26:36;10.82;;;6.50;;
15240;SDS011;7723;52.170;9.978;2022-10-13T00:29:04;15.57;;;6.82;;
15240;SDS011;7723;52.170;9.978;2022-10-13T00:31:31;12.25;;;5.80;;
15240;SDS011;7723;52.170;9.978;2022-10-13T00:33:58;12.18;;;6.63;;
15240;SDS011;7723;52.170;9.978;2022-10-13T00:36:27;10.98;;;6.22;;
15240;SDS011;7723;52.170;9.978;2022-10-13T00:38:55;14.60;;;6.28;;
15240;SDS011;7723;52.170;9.978;2022-10-13T00:41:24;9.95;;;5.63;;
15240;SDS011;7723;52.170;9.978;2022-10-13T00:43:55;13.65;;;6.82;;
15240;SDS011;7723;52.170;9.978;2022-10-13T00:46:25;11.85;;;7.20;;
15240;SDS011;7723;52.170;9.978;2022-10-13T00:48:54;11.98;;;6.03;;
15240;SDS011;7723;52.170;9.978;2022-10-13T00:51:24;9.00;;;5.88;;
15240;SDS011;7723;52.170;9.978;2022-10-13T00:53:54;16.35;;;6.03;;
15240;SDS011;7723;52.170;9.978;2022-10-13T00:56:25;15.43;;;6.22;;
15240;SDS011;7723;52.170;9.978;2022-10-13T00:58:54;12.73;;;6.10;;
15240;SDS011;7723;52.170;9.978;2022-10-13T01:01:22;11.95;;;6.40;;
15240;SDS011;7723;52.170;9.978;2022-10-13T01:03:49;14.82;;;6.70;;
15240;SDS011;7723;52.170;9.978;2022-10-13T01:06:17;12.93;;;6.70;;
15240;SDS011;7723;52.170;9.978;2022-10-13T01:08:45;10.93;;;6.40;;
15240;SDS011;7723;52.170;9.978;2022-10-13T01:11:17;12.45;;;6.35;;
15240;SDS011;7723;52.170;9.978;2022-10-13T01:13:55;12.63;;;6.80;;
15240;SDS011;7723;52.170;9.978;2022-10-13T01:16:29;17.45;;;6.35;;
15240;SDS011;7723;52.170;9.978;2022-10-13T01:19:03;10.38;;;5.72;;
15240;SDS011;7723;52.170;9.978;2022-10-13T01:21:45;12.68;;;5.78;;
15240;SDS011;7723;52.170;9.978;2022-10-13T01:24:39;11.20;;;6.07;;
15240;SDS011;7723;52.170;9.978;2022-10-13T01:27:24;9.00;;;5.60;;
15240;SDS011;7723;52.170;9.978;2022-10-13T01:30:09;11.95;;;6.68;;
15240;SDS011;7723;52.170;9.978;2022-10-13T01:32:46;15.05;;;5.97;;
15240;SDS011;7723;52.170;9.978;2022-10-13T01:35:22;15.10;;;6.53;;
15240;SDS011;7723;52.170;9.978;2022-10-13T01:38:00;10.23;;;5.78;;
15240;SDS011;7723;52.170;9.978;2022-10-13T01:40:35;10.95;;;5.80;;
15240;SDS011;7723;52.170;9.978;2022-10-13T01:43:07;17.58;;;7.35;;
15240;SDS011;7723;52.170;9.978;2022-10-13T01:45:39;11.70;;;6.28;;
15240;SDS011;7723;52.170;9.978;2022-10-13T01:48:12;15.18;;;7.45;;
15240;SDS011;7723;52.170;9.978;2022-10-13T01:50:42;10.20;;;5.85;;
15240;SDS011;7723;52.170;9.978;2022-10-13T01:53:09;8.80;;;6.22;;
15240;SDS011;7723;52.170;9.978;2022-10-13T01:55:47;10.82;;;6.47;;
15240;SDS011;7723;52.170;9.978;2022-10-13T01:58:15;12.38;;;6.93;;
15240;SDS011;7723;52.170;9.978;2022-10-13T02:00:45;10.75;;;5.63;;
15240;SDS011;7723;52.170;9.978;2022-10-13T02:03:35;12.35;;;6.32;;
15240;SDS011;7723;52.170;9.978;2022-10-13T02:06:14;14.88;;;7.32;;
15240;SDS011;7723;52.170;9.978;2022-10-13T02:08:49;11.70;;;6.10;;
15240;SDS011;7723;52.170;9.978;2022-10-13T02:11:23;14.95;;;6.57;;
15240;SDS011;7723;52.170;9.978;2022-10-13T02:13:53;11.80;;;6.25;;
15240;SDS011;7723;52.170;9.978;2022-10-13T02:16:27;13.75;;;8.32;;
15240;SDS011;7723;52.170;9.978;2022-10-13T02:18:58;11.05;;;6.55;;
15240;SDS011;7723;52.170;9.978;2022-10-13T02:21:30;14.23;;;7.05;;
15240;SDS011;7723;52.170;9.978;2022-10-13T02:23:57;11.55;;;6.05;;
15240;SDS011;7723;52.170;9.978;2022-10-13T02:26:25;12.77;;;6.70;;
15240;SDS011;7723;52.170;9.978;2022-10-13T02:28:53;15.20;;;6.88;;
15240;SDS011;7723;52.170;9.978;2022-10-13T02:31:20;11.95;;;6.82;;
15240;SDS011;7723;52.170;9.978;2022-10-13T02:33:48;14.05;;;6.88;;
15240;SDS011;7723;52.170;9.978;2022-10-13T02:36:16;11.18;;;6.93;;
15240;SDS011;7723;52.170;9.978;2022-10-13T02:38:43;10.75;;;6.20;;
15240;SDS011;7723;52.170;9.978;2022-10-13T02:41:10;13.52;;;7.03;;
15240;SDS011;7723;52.170;9.978;2022-10-13T02:43:37;12.93;;;6.85;;
15240;SDS011;7723;52.170;9.978;2022-10-13T02:46:04;11.38;;;6.60;;
15240;SDS011;7723;52.170;9.978;2022-10-13T02:48:31;17.20;;;7.25;;
15240;SDS011;7723;52.170;9.978;2022-10-13T02:51:00;12.15;;;6.30;;
15240;SDS011;7723;52.170;9.978;2022-10-13T02:53:27;14.38;;;6.35;;
15240;SDS011;7723;52.170;9.978;2022-10-13T02:55:54;12.52;;;6.72;;
15240;SDS011;7723;52.170;9.978;2022-10-13T02:58:21;11.88;;;7.95;;
15240;SDS011;7723;52.170;9.978;2022-10-13T03:00:49;16.02;;;6.88;;
15240;SDS011;7723;52.170;9.978;2022-10-13T03:03:16;12.85;;;6.95;;
15240;SDS011;7723;52.170;9.978;2022-10-13T03:05:43;12.23;;;6.55;;
15240;SDS011;7723;52.170;9.978;2022-10-13T03:08:12;13.02;;;7.07;;
15240;SDS011;7723;52.170;9.978;2022-10-13T03:10:39;13.85;;;7.75;;
15240;SDS011;7723;52.170;9.978;2022-10-13T03:13:07;13.23;;;6.57;;
15240;SDS011;7723;52.170;9.978;2022-10-13T03:15:34;12.43;;;7.35;;
15240;SDS011;7723;52.170;9.978;2022-10-13T03:18:01;13.82;;;7.78;;
15240;SDS011;7723;52.170;9.978;2022-10-13T03:20:28;16.08;;;8.05;;
15240;SDS011;7723;52.170;9.978;2022-10-13T03:22:55;11.85;;;7.07;;
15240;SDS011;7723;52.170;9.978;2022-10-13T03:25:24;11.40;;;7.65;;
15240;SDS011;7723;52.170;9.978;2022-10-13T03:27:51;14.00;;;8.32;;
15240;SDS011;7723;52.170;9.978;2022-10-13T03:30:20;15.90;;;8.10;;
15240;SDS011;7723;52.170;9.978;2022-10-13T03:32:47;14.65;;;8.88;;
15240;SDS011;7723;52.170;9.978;2022-10-13T03:35:14;19.15;;;8.75;;
15240;SDS011;7723;52.170;9.978;2022-10-13T03:37:42;15.45;;;8.63;;
15240;SDS011;7723;52.170;9.978;2022-10-13T03:40:10;12.50;;;7.65;;
15240;SDS011;7723;52.170;9.978;2022-10-13T03:42:39;13.18;;;7.45;;
15240;SDS011;7723;52.170;9.978;2022-10-13T03:45:06;16.77;;;8.48;;
15240;SDS011;7723;52.170;9.978;2022-10-13T03:47:34;15.57;;;8.25;;
15240;SDS011;7723;52.170;9.978;2022-10-13T03:50:03;15.43;;;8.00;;
15240;SDS011;7723;52.170;9.978;2022-10-13T03:52:30;15.07;;;7.78;;
15240;SDS011;7723;52.170;9.978;2022-10-13T03:54:58;16.40;;;8.10;;
15240;SDS011;7723;52.170;9.978;2022-10-13T03:57:25;14.82;;;8.40;;
15240;SDS011;7723;52.170;9.978;2022-10-13T03:59:53;17.85;;;9.00;;
15240;SDS011;7723;52.170;9.978;2022-10-13T04:02:22;14.38;;;8.32;;
15240;SDS011;7723;52.170;9.978;2022-10-13T04:04:49;14.60;;;8.98;;
15240;SDS011;7723;52.170;9.978;2022-10-13T04:07:16;13.02;;;8.30;;
15240;SDS011;7723;52.170;9.978;2022-10-13T04:09:43;16.13;;;8.55;;
15240;SDS011;7723;52.170;9.978;2022-10-13T04:12:10;16.05;;;9.00;;
15240;SDS011;7723;52.170;9.978;2022-10-13T04:14:38;18.40;;;9.30;;
15240;SDS011;7723;52.170;9.978;2022-10-13T04:17:06;14.45;;;8.38;;
15240;SDS011;7723;52.170;9.978;2022-10-13T04:19:33;19.17;;;8.93;;
15240;SDS011;7723;52.170;9.978;2022-10-13T04:22:00;16.48;;;9.45;;
15240;SDS011;7723;52.170;9.978;2022-10-13T04:24:28;21.00;;;9.85;;
15240;SDS011;7723;52.170;9.978;2022-10-13T04:26:55;19.05;;;9.75;;
15240;SDS011;7723;52.170;9.978;2022-10-13T04:29:22;19.73;;;9.65;;
15240;SDS011;7723;52.170;9.978;2022-10-13T04:31:49;18.92;;;10.13;;
15240;SDS011;7723;52.170;9.978;2022-10-13T04:34:18;21.00;;;10.27;;
15240;SDS011;7723;52.170;9.978;2022-10-13T04:36:48;21.05;;;9.93;;
15240;SDS011;7723;52.170;9.978;2022-10-13T04:39:16;16.52;;;9.82;;
15240;SDS011;7723;52.170;9.978;2022-10-13T04:41:43;17.98;;;10.77;;
15240;SDS011;7723;52.170;9.978;2022-10-13T04:44:10;20.40;;;9.88;;
15240;SDS011;7723;52.170;9.978;2022-10-13T04:46:37;21.13;;;10.07;;
15240;SDS011;7723;52.170;9.978;2022-10-13T04:49:04;17.52;;;9.68;;
15240;SDS011;7723;52.170;9.978;2022-10-13T04:51:33;16.60;;;9.70;;
15240;SDS011;7723;52.170;9.978;2022-10-13T04:54:00;17.00;;;9.52;;
15240;SDS011;7723;52.170;9.978;2022-10-13T04:56:29;21.73;;;10.52;;
15240;SDS011;7723;52.170;9.978;2022-10-13T04:58:57;15.98;;;9.35;;
15240;SDS011;7723;52.170;9.978;2022-10-13T05:01:25;16.35;;;9.93;;
15240;SDS011;7723;52.170;9.978;2022-10-13T05:03:52;17.80;;;10.65;;
15240;SDS011;7723;52.170;9.978;2022-10-13T05:06:21;19.73;;;10.45;;
15240;SDS011;7723;52.170;9.978;2022-10-13T05:08:51;18.00;;;10.38;;
15240;SDS011;7723;52.170;9.978;2022-10-13T05:11:20;18.02;;;9.98;;
15240;SDS011;7723;52.170;9.978;2022-10-13T05:13:47;20.98;;;10.07;;
15240;SDS011;7723;52.170;9.978;2022-10-13T05:16:15;20.25;;;10.30;;
15240;SDS011;7723;52.170;9.978;2022-10-13T05:18:44;17.73;;;10.02;;
15240;SDS011;7723;52.170;9.978;2022-10-13T05:21:12;18.77;;;10.60;;
15240;SDS011;7723;52.170;9.978;2022-10-13T05:23:41;17.25;;;10.10;;
15240;SDS011;7723;52.170;9.978;2022-10-13T05:26:11;17.67;;;9.13;;
15240;SDS011;7723;52.170;9.978;2022-10-13T05:28:40;25.33;;;13.00;;
15240;SDS011;7723;52.170;9.978;2022-10-13T05:31:08;25.25;;;12.52;;
15240;SDS011;7723;52.170;9.978;2022-10-13T05:33:37;25.27;;;11.82;;
15240;SDS011;7723;52.170;9.978;2022-10-13T05:36:05;37.25;;;15.90;;
15240;SDS011;7723;52.170;9.978;2022-10-13T05:38:33;30.75;;;14.57;;
15240;SDS011;7723;52.170;9.978;2022-10-13T05:41:01;25.55;;;12.63;;
15240;SDS011;7723;52.170;9.978;2022-10-13T05:43:31;25.75;;;12.10;;
15240;SDS011;7723;52.170;9.978;2022-10-13T05:45:59;25.05;;;12.52;;
15240;SDS011;7723;52.170;9.978;2022-10-13T05:48:27;24.35;;;12.52;;
15240;SDS011;7723;52.170;9.978;2022-10-13T05:50:54;22.98;;;12.10;;
15240;SDS011;7723;52.170;9.978;2022-10-13T05:53:26;23.73;;;11.68;;
15240;SDS011;7723;52.170;9.978;2022-10-13T05:55:56;24.73;;;11.93;;
15240;SDS011;7723;52.170;9.978;2022-10-13T05:58:32;26.88;;;12.27;;
15240;SDS011;7723;52.170;9.978;2022-10-13T06:01:01;23.90;;;12.15;;
15240;SDS011;7723;52.170;9.978;2022-10-13T06:03:31;21.30;;;10.77;;
15240;SDS011;7723;52.170;9.978;2022-10-13T06:05:59;21.80;;;11.30;;
15240;SDS011;7723;52.170;9.978;2022-10-13T06:08:43;26.00;;;12.40;;
15240;SDS011;7723;52.170;9.978;2022-10-13T06:11:15;19.27;;;11.15;;
15240;SDS011;7723;52.170;9.978;2022-10-13T06:14:07;22.05;;;11.60;;
15240;SDS011;7723;52.170;9.978;2022-10-13T06:16:34;21.25;;;11.75;;
15240;SDS011;7723;52.170;9.978;2022-10-13T06:19:02;24.75;;;12.13;;
15240;SDS011;7723;52.170;9.978;2022-10-13T06:21:29;19.98;;;10.77;;
15240;SDS011;7723;52.170;9.978;2022-10-13T06:23:57;19.88;;;12.15;;
15240;SDS011;7723;52.170;9.978;2022-10-13T06:26:25;23.85;;;11.73;;
15240;SDS011;7723;52.170;9.978;2022-10-13T06:28:52;19.80;;;11.07;;
15240;SDS011;7723;52.170;9.978;2022-10-13T06:31:20;16.95;;;10.88;;
15240;SDS011;7723;52.170;9.978;2022-10-13T06:33:48;20.63;;;11.40;;
15240;SDS011;7723;52.170;9.978;2022-10-13T06:36:16;18.63;;;11.10;;
15240;SDS011;7723;52.170;9.978;2022-10-13T06:38:43;23.02;;;11.60;;
15240;SDS011;7723;52.170;9.978;2022-10-13T06:41:11;29.00;;;12.15;;
15240;SDS011;7723;52.170;9.978;2022-10-13T06:43:39;20.50;;;10.68;;
15240;SDS011;7723;52.170;9.978;2022-10-13T06:46:06;15.48;;;9.70;;
15240;SDS011;7723;52.170;9.978;2022-10-13T06:48:35;16.10;;;9.70;;
15240;SDS011;7723;52.170;9.978;2022-10-13T06:51:02;21.65;;;10.77;;
15240;SDS011;7723;52.170;9.978;2022-10-13T06:53:30;21.30;;;10.30;;
15240;SDS011;7723;52.170;9.978;2022-10-13T06:55:58;20.27;;;11.93;;
15240;SDS011;7723;52.170;9.978;2022-10-13T06:58:26;15.95;;;10.05;;
15240;SDS011;7723;52.170;9.978;2022-10-13T07:00:54;20.10;;;10.65;;
15240;SDS011;7723;52.170;9.978;2022-10-13T07:03:21;22.38;;;9.68;;
15240;SDS011;7723;52.170;9.978;2022-10-13T07:05:50;17.50;;;9.27;;
15240;SDS011;7723;52.170;9.978;2022-10-13T07:08:18;15.70;;;8.00;;
15240;SDS011;7723;52.170;9.978;2022-10-13T07:10:45;15.55;;;8.63;;
15240;SDS011;7723;52.170;9.978;2022-10-13T07:13:13;15.43;;;8.50;;
15240;SDS011;7723;52.170;9.978;2022-10-13T07:15:40;14.13;;;8.30;;
15240;SDS011;7723;52.170;9.978;2022-10-13T07:18:07;15.30;;;8.73;;
15240;SDS011;7723;52.170;9.978;2022-10-13T07:20:34;13.73;;;9.60;;
15240;SDS011;7723;52.170;9.978;2022-10-13T07:23:03;12.30;;;7.63;;
15240;SDS011;7723;52.170;9.978;2022-10-13T07:25:30;14.65;;;7.85;;
15240;SDS011;7723;52.170;9.978;2022-10-13T07:27:57;15.05;;;8.13;;
15240;SDS011;7723;52.170;9.978;2022-10-13T07:30:24;12.90;;;8.18;;
15240;SDS011;7723;52.170;9.978;2022-10-13T07:32:51;14.57;;;9.07;;
15240;SDS011;7723;52.170;9.978;2022-10-13T07:35:18;15.52;;;8.93;;
15240;SDS011;7723;52.170;9.978;2022-10-13T07:37:46;13.20;;;8.23;;
15240;SDS011;7723;52.170;9.978;2022-10-13T07:40:14;28.92;;;7.95;;
15240;SDS011;7723;52.170;9.978;2022-10-13T07:42:42;13.88;;;8.73;;
15240;SDS011;7723;52.170;9.978;2022-10-13T07:45:09;14.20;;;8.48;;
15240;SDS011;7723;52.170;9.978;2022-10-13T07:47:36;13.25;;;8.73;;
15240;SDS011;7723;52.170;9.978;2022-10-13T07:50:04;14.65;;;8.13;;
15240;SDS011;7723;52.170;9.978;2022-10-13T07:52:33;10.10;;;6.82;;
15240;SDS011;7723;52.170;9.978;2022-10-13T07:55:01;11.15;;;7.45;;
15240;SDS011;7723;52.170;9.978;2022-10-13T07:57:30;13.07;;;6.57;;
15240;SDS011;7723;52.170;9.978;2022-10-13T07:59:57;13.85;;;7.05;;
15240;SDS011;7723;52.170;9.978;2022-10-13T08:02:24;11.52;;;6.00;;
15240;SDS011;7723;52.170;9.978;2022-10-13T08:04:52;11.60;;;7.40;;
15240;SDS011;7723;52.170;9.978;2022-10-13T08:07:19;13.55;;;6.95;;
15240;SDS011;7723;52.170;9.978;2022-10-13T08:09:46;11.32;;;6.75;;
15240;SDS011;7723;52.170;9.978;2022-10-13T08:12:13;9.38;;;5.72;;
15240;SDS011;7723;52.170;9.978;2022-10-13T08:14:42;10.88;;;6.25;;
15240;SDS011;7723;52.170;9.978;2022-10-13T08:17:09;8.25;;;5.93;;
15240;SDS011;7723;52.170;9.978;2022-10-13T08:19:36;10.80;;;6.40;;
15240;SDS011;7723;52.170;9.978;2022-10-13T08:22:03;10.27;;;5.65;;
15240;SDS011;7723;52.170;9.978;2022-10-13T08:24:30;10.82;;;6.20;;
15240;SDS011;7723;52.170;9.978;2022-10-13T08:26:58;8.23;;;5.38;;
15240;SDS011;7723;52.170;9.978;2022-10-13T08:29:25;10.70;;;5.82;;
15240;SDS011;7723;52.170;9.978;2022-10-13T08:31:53;12.02;;;6.38;;
15240;SDS011;7723;52.170;9.978;2022-10-13T08:34:21;20.70;;;6.68;;
15240;SDS011;7723;52.170;9.978;2022-10-13T08:36:49;10.57;;;6.10;;
15240;SDS011;7723;52.170;9.978;2022-10-13T08:39:18;8.98;;;6.15;;
15240;SDS011;7723;52.170;9.978;2022-10-13T08:41:46;10.20;;;5.78;;
15240;SDS011;7723;52.170;9.978;2022-10-13T08:44:16;10.00;;;5.50;;
15240;SDS011;7723;52.170;9.978;2022-10-13T08:46:48;10.05;;;5.82;;
15240;SDS011;7723;52.170;9.978;2022-10-13T08:49:24;10.38;;;5.93;;
15240;SDS011;7723;52.170;9.978;2022-10-13T08:51:51;10.05;;;5.35;;
15240;SDS011;7723;52.170;9.978;2022-10-13T08:54:20;7.95;;;5.25;;
15240;SDS011;7723;52.170;9.978;2022-10-13T08:56:50;12.02;;;5.63;;
15240;SDS011;7723;52.170;9.978;2022-10-13T08:59:18;11.05;;;5.95;;
15240;SDS011;7723;52.170;9.978;2022-10-13T09:01:46;10.95;;;5.93;;
15240;SDS011;7723;52.170;9.978;2022-10-13T09:04:25;10.35;;;6.10;;
15240;SDS011;7723;52.170;9.978;2022-10-13T09:06:57;9.15;;;5.10;;
15240;SDS011;7723;52.170;9.978;2022-10-13T09:09:30;8.52;;;5.63;;
15240;SDS011;7723;52.170;9.978;2022-10-13T09:11:58;9.23;;;5.68;;
15240;SDS011;7723;52.170;9.978;2022-10-13T09:14:27;10.90;;;5.53;;
15240;SDS011;7723;52.170;9.978;2022-10-13T09:16:56;8.48;;;5.75;;
15240;SDS011;7723;52.170;9.978;2022-10-13T09:19:41;8.98;;;5.82;;
15240;SDS011;7723;52.170;9.978;2022-10-13T09:22:18;8.63;;;5.57;;
15240;SDS011;7723;52.170;9.978;2022-10-13T09:25:00;10.38;;;5.88;;
15240;SDS011;7723;52.170;9.978;2022-10-13T09:27:41;10.98;;;6.55;;
15240;SDS011;7723;52.170;9.978;2022-10-13T09:30:28;8.98;;;5.65;;
15240;SDS011;7723;52.170;9.978;2022-10-13T09:33:14;9.95;;;5.78;;
15240;SDS011;7723;52.170;9.978;2022-10-13T09:35:47;9.15;;;5.38;;
15240;SDS011;7723;52.170;9.978;2022-10-13T09:38:16;13.18;;;7.78;;
15240;SDS011;7723;52.170;9.978;2022-10-13T09:40:56;8.38;;;5.72;;
15240;SDS011;7723;52.170;9.978;2022-10-13T09:43:27;11.70;;;5.15;;
15240;SDS011;7723;52.170;9.978;2022-10-13T09:45:56;8.70;;;4.97;;
15240;SDS011;7723;52.170;9.978;2022-10-13T09:48:24;8.18;;;5.47;;
15240;SDS011;7723;52.170;9.978;2022-10-13T09:50:55;7.55;;;5.38;;
15240;SDS011;7723;52.170;9.978;2022-10-13T09:53:24;10.15;;;5.05;;
15240;SDS011;7723;52.170;9.978;2022-10-13T09:56:08;9.02;;;5.10;;
15240;SDS011;7723;52.170;9.978;2022-10-13T09:58:45;9.35;;;5.25;;
15240;SDS011;7723;52.170;9.978;2022-10-13T10:01:18;9.25;;;5.45;;
15240;SDS011;7723;52.170;9.978;2022-10-13T10:03:50;8.00;;;4.70;;
15240;SDS011;7723;52.170;9.978;2022-10-13T10:06:20;7.03;;;4.50;;
15240;SDS011;7723;52.170;9.978;2022-10-13T10:08:50;9.82;;;4.82;;
15240;SDS011;7723;52.170;9.978;2022-10-13T10:11:23;7.07;;;4.55;;
15240;SDS011;7723;52.170;9.978;2022-10-13T10:13:54;7.93;;;4.75;;
15240;SDS011;7723;52.170;9.978;2022-10-13T10:16:23;7.13;;;4.70;;
15240;SDS011;7723;52.170;9.978;2022-10-13T10:18:57;6.38;;;4.35;;
15240;SDS011;7723;52.170;9.978;2022-10-13T10:21:33;5.85;;;4.72;;
15240;SDS011;7723;52.170;9.978;2022-10-13T10:24:06;7.22;;;5.35;;
15240;SDS011;7723;52.170;9.978;2022-10-13T10:26:43;9.20;;;4.85;;
15240;SDS011;7723;52.170;9.978;2022-10-13T10:29:18;6.95;;;4.47;;
15240;SDS011;7723;52.170;9.978;2022-10-13T10:31:54;9.25;;;5.15;;
15240;SDS011;7723;52.170;9.978;2022-10-13T10:34:34;7.85;;;4.85;;
15240;SDS011;7723;52.170;9.978;2022-10-13T10:37:15;7.28;;;4.60;;
15240;SDS011;7723;52.170;9.978;2022-10-13T10:39:46;7.38;;;4.55;;
15240;SDS011;7723;52.170;9.978;2022-10-13T10:42:22;9.88;;;4.28;;
15240;SDS011;7723;52.170;9.978;2022-10-13T10:45:11;6.75;;;4.68;;
15240;SDS011;7723;52.170;9.978;2022-10-13T10:47:44;6.22;;;4.57;;
15240;SDS011;7723;52.170;9.978;2022-10-13T10:50:14;7.40;;;5.13;;
15240;SDS011;7723;52.170;9.978;2022-10-13T10:52:47;8.32;;;4.10;;
15240;SDS011;7723;52.170;9.978;2022-10-13T10:55:22;5.95;;;4.25;;
15240;SDS011;7723;52.170;9.978;2022-10-13T10:57:58;6.30;;;4.38;;
15240;SDS011;7723;52.170;9.978;2022-10-13T11:00:40;8.27;;;4.53;;
15240;SDS011;7723;52.170;9.978;2022-10-13T11:03:17;9.00;;;4.60;;
15240;SDS011;7723;52.170;9.978;2022-10-13T11:05:58;7.25;;;4.50;;
15240;SDS011;7723;52.170;9.978;2022-10-13T11:08:37;9.02;;;4.88;;
15240;SDS011;7723;52.170;9.978;2022-10-13T11:11:28;6.72;;;4.20;;
15240;SDS011;7723;52.170;9.978;2022-10-13T11:13:59;11.18;;;4.65;;
15240;SDS011;7723;52.170;9.978;2022-10-13T11:16:38;5.75;;;3.83;;
15240;SDS011;7723;52.170;9.978;2022-10-13T11:19:26;6.38;;;3.88;;
15240;SDS011;7723;52.170;9.978;2022-10-13T11:22:12;7.38;;;4.13;;
15240;SDS011;7723;52.170;9.978;2022-10-13T11:24:47;8.52;;;4.00;;
15240;SDS011;7723;52.170;9.978;2022-10-13T11:27:18;4.00;;;3.30;;
15240;SDS011;7723;52.170;9.978;2022-10-13T11:29:53;7.57;;;3.67;;
15240;SDS011;7723;52.170;9.978;2022-10-13T11:32:41;5.05;;;3.28;;
15240;SDS011;7723;52.170;9.978;2022-10-13T11:35:22;6.05;;;4.10;;
15240;SDS011;7723;52.170;9.978;2022-10-13T11:37:59;5.20;;;3.13;;
15240;SDS011;7723;52.170;9.978;2022-10-13T11:40:39;4.82;;;2.70;;
15240;SDS011;7723;52.170;9.978;2022-10-13T11:43:16;4.25;;;2.83;;
15240;SDS011;7723;52.170;9.978;2022-10-13T11:45:58;15.75;;;3.35;;
15240;SDS011;7723;52.170;9.978;2022-10-13T11:48:51;5.10;;;2.70;;
15240;SDS011;7723;52.170;9.978;2022-10-13T11:51:47;4.30;;;2.63;;
15240;SDS011;7723;52.170;9.978;2022-10-13T11:54:29;6.22;;;2.78;;
15240;SDS011;7723;52.170;9.978;2022-10-13T11:57:02;4.75;;;3.38;;
15240;SDS011;7723;52.170;9.978;2022-10-13T11:59:44;7.07;;;2.80;;
15240;SDS011;7723;52.170;9.978;2022-10-13T12:02:13;6.85;;;3.33;;
15240;SDS011;7723;52.170;9.978;2022-10-13T12:04:42;5.93;;;3.25;;
15240;SDS011;7723;52.170;9.978;2022-10-13T12:07:10;7.82;;;3.15;;
15240;SDS011;7723;52.170;9.978;2022-10-13T12:09:47;4.53;;;3.17;;
15240;SDS011;7723;52.170;9.978;2022-10-13T12:12:17;7.35;;;3.30;;
15240;SDS011;7723;52.170;9.978;2022-10-13T12:14:46;5.93;;;3.63;;
15240;SDS011;7723;52.170;9.978;2022-10-13T12:17:19;7.30;;;4.30;;
15240;SDS011;7723;52.170;9.978;2022-10-13T12:19:48;10.10;;;3.92;;
15240;SDS011;7723;52.170;9.978;2022-10-13T12:22:15;9.52;;;4.35;;
15240;SDS011;7723;52.170;9.978;2022-10-13T12:24:42;6.30;;;4.25;;
15240;SDS011;7723;52.170;9.978;2022-10-13T12:27:23;9.70;;;5.20;;
15240;SDS011;7723;52.170;9.978;2022-10-13T12:29:51;7.63;;;4.55;;
15240;SDS011;7723;52.170;9.978;2022-10-13T12:32:19;8.07;;;4.68;;
15240;SDS011;7723;52.170;9.978;2022-10-13T12:34:48;7.28;;;4.57;;
15240;SDS011;7723;52.170;9.978;2022-10-13T12:37:17;9.13;;;4.95;;
15240;SDS011;7723;52.170;9.978;2022-10-13T12:39:51;5.65;;;4.00;;
15240;SDS011;7723;52.170;9.978;2022-10-13T12:42:24;6.22;;;4.28;;
15240;SDS011;7723;52.170;9.978;2022-10-13T12:44:55;10.30;;;4.68;;
15240;SDS011;7723;52.170;9.978;2022-10-13T12:47:36;8.10;;;4.43;;
15240;SDS011;7723;52.170;9.978;2022-10-13T12:50:22;9.02;;;5.03;;
15240;SDS011;7723;52.170;9.978;2022-10-13T12:53:04;6.22;;;3.80;;
15240;SDS011;7723;52.170;9.978;2022-10-13T12:55:44;6.38;;;4.35;;
15240;SDS011;7723;52.170;9.978;2022-10-13T12:58:22;6.32;;;4.47;;
15240;SDS011;7723;52.170;9.978;2022-10-13T13:01:02;6.57;;;4.78;;
15240;SDS011;7723;52.170;9.978;2022-10-13T13:03:35;8.93;;;4.60;;
15240;SDS011;7723;52.170;9.978;2022-10-13T13:06:08;6.43;;;4.70;;
15240;SDS011;7723;52.170;9.978;2022-10-13T13:08:47;10.25;;;4.50;;
15240;SDS011;7723;52.170;9.978;2022-10-13T13:11:33;6.85;;;4.22;;
15240;SDS011;7723;52.170;9.978;2022-10-13T13:14:22;6.75;;;4.68;;
15240;SDS011;7723;52.170;9.978;2022-10-13T13:17:03;7.85;;;4.70;;
15240;SDS011;7723;52.170;9.978;2022-10-13T13:19:32;6.75;;;4.15;;
15240;SDS011;7723;52.170;9.978;2022-10-13T13:22:01;6.68;;;4.47;;
15240;SDS011;7723;52.170;9.978;2022-10-13T13:24:29;8.23;;;4.03;;
15240;SDS011;7723;52.170;9.978;2022-10-13T13:26:56;8.15;;;4.60;;
15240;SDS011;7723;52.170;9.978;2022-10-13T13:29:25;7.75;;;4.15;;
15240;SDS011;7723;52.170;9.978;2022-10-13T13:31:52;6.85;;;3.95;;
15240;SDS011;7723;52.170;9.978;2022-10-13T13:34:19;8.25;;;4.32;;
15240;SDS011;7723;52.170;9.978;2022-10-13T13:36:47;5.32;;;3.38;;
15240;SDS011;7723;52.170;9.978;2022-10-13T13:39:15;5.75;;;3.80;;
15240;SDS011;7723;52.170;9.978;2022-10-13T13:41:42;4.80;;;3.55;;
15240;SDS011;7723;52.170;9.978;2022-10-13T13:44:11;6.60;;;3.72;;
15240;SDS011;7723;52.170;9.978;2022-10-13T13:46:40;3.92;;;3.03;;
15240;SDS011;7723;52.170;9.978;2022-10-13T13:49:08;6.65;;;3.60;;
15240;SDS011;7723;52.170;9.978;2022-10-13T13:51:35;5.32;;;3.58;;
15240;SDS011;7723;52.170;9.978;2022-10-13T13:54:03;4.68;;;2.80;;
15240;SDS011;7723;52.170;9.978;2022-10-13T13:56:30;4.40;;;3.15;;
15240;SDS011;7723;52.170;9.978;2022-10-13T13:58:58;6.15;;;3.03;;
15240;SDS011;7723;52.170;9.978;2022-10-13T14:01:25;6.72;;;3.20;;
15240;SDS011;7723;52.170;9.978;2022-10-13T14:03:54;8.38;;;2.92;;
15240;SDS011;7723;52.170;9.978;2022-10-13T14:06:21;7.47;;;3.67;;
15240;SDS011;7723;52.170;9.978;2022-10-13T14:08:48;3.47;;;2.70;;
15240;SDS011;7723;52.170;9.978;2022-10-13T14:11:15;5.18;;;2.97;;
15240;SDS011;7723;52.170;9.978;2022-10-13T14:13:43;5.53;;;2.83;;
15240;SDS011;7723;52.170;9.978;2022-10-13T14:16:10;7.35;;;3.00;;
15240;SDS011;7723;52.170;9.978;2022-10-13T14:18:42;4.47;;;2.90;;
15240;SDS011;7723;52.170;9.978;2022-10-13T14:21:11;4.82;;;2.63;;
15240;SDS011;7723;52.170;9.978;2022-10-13T14:23:38;3.15;;;2.40;;
15240;SDS011;7723;52.170;9.978;2022-10-13T14:26:10;4.65;;;2.28;;
15240;SDS011;7723;52.170;9.978;2022-10-13T14:28:39;4.57;;;2.47;;
15240;SDS011;7723;52.170;9.978;2022-10-13T14:31:07;8.00;;;2.63;;
15240;SDS011;7723;52.170;9.978;2022-10-13T14:33:34;4.40;;;2.80;;
15240;SDS011;7723;52.170;9.978;2022-10-13T14:36:03;4.63;;;2.28;;
15240;SDS011;7723;52.170;9.978;2022-10-13T14:38:33;10.68;;;2.50;;
15240;SDS011;7723;52.170;9.978;2022-10-13T14:41:01;5.50;;;2.92;;
15240;SDS011;7723;52.170;9.978;2022-10-13T14:43:30;3.53;;;2.80;;
15240;SDS011;7723;52.170;9.978;2022-10-13T14:45:59;5.18;;;2.90;;
15240;SDS011;7723;52.170;9.978;2022-10-13T14:48:28;5.07;;;2.80;;
15240;SDS011;7723;52.170;9.978;2022-10-13T14:50:56;6.10;;;2.85;;
15240;SDS011;7723;52.170;9.978;2022-10-13T14:53:23;6.57;;;3.40;;
15240;SDS011;7723;52.170;9.978;2022-10-13T14:55:53;6.28;;;3.05;;
15240;SDS011;7723;52.170;9.978;2022-10-13T14:58:21;11.95;;;3.55;;
15240;SDS011;7723;52.170;9.978;2022-10-13T15:00:48;3.33;;;2.67;;
15240;SDS011;7723;52.170;9.978;2022-10-13T15:03:16;10.43;;;2.85;;
15240;SDS011;7723;52.170;9.978;2022-10-13T15:05:45;5.57;;;3.17;;
15240;SDS011;7723;52.170;9.978;2022-10-13T15:08:12;7.53;;;2.67;;
15240;SDS011;7723;52.170;9.978;2022-10-13T15:10:39;6.13;;;2.90;;
15240;SDS011;7723;52.170;9.978;2022-10-13T15:13:08;5.68;;;3.00;;